Orem, UT (84058)

4:14 AM MST on February 13, 2016 (GMT -0700)
USCJTF 127 Weather | | Change Station
CLOSE
Current Station
Personal Weather Station
Location: Orem, UT
Elevation: 4760 ft
Nearby Weather Stations
Active Advisory: Dense Fog Advisory

Elev 4760 ft 40.28 °N, 111.69 °W | Updated 1 second ago

Overcast
Overcast
23.7 °F
Feels Like 24 °F
N
2.0
Wind Variable Wind from ESE
Gusts 2.0 mph

Today
High -- | Low -- °F
--% Chance of Precip.
Yesterday
High -- | Low -- °F
Precip. -- in
Pressure 30.23 in
Visibility 7.0 miles
Clouds Clear
Windchill 24 °F
Dew Point 22 °F
Humidity 94%
Rainfall 0.00 in
Snow Depth Not available.
7:23 AM 5:59 PM
Waxing Crescent, 29% visible
METAR K36U 131055Z AUTO 00000KT 7SM CLR M12/M13 A3023 RMK AO2
Pressure 30.23 in
Visibility 7.0 miles
Clouds Clear
Windchill 24 °F
Dew Point 22 °F
Humidity 94%
Rainfall 0.00 in
Snow Depth Not available.
7:23 AM 5:59 PM
Waxing Crescent, 29% visible
METAR K36U 131055Z AUTO 00000KT 7SM CLR M12/M13 A3023 RMK AO2

10-Day Weather Forecast

Almanac

Astronomy

Feb. 13, 2016 Rise Set
Actual Time
Civil Twilight
Nautical Twilight
Astronomical Twilight
Moon
Length of Visible Light
Length of Day
Tomorrow will be .
, % of the Moon is Illuminated

Today's Extremes

State Highs State Lows

Community

WunderPhotos

Upload Photos

1,892,541 photos uploaded!

WunderBlog® & News

Nearby

Air Quality

  Air Quality AQ Index Pollutant
Not available.

Snow Depth

Station Depth Elevation

Earthquake Activity

City Distance Mag. Time & Date
Minimum magnitude displayed is 2.5.

Coastal Water Temperatures

Place Temperature

Stations

Nearby Weather Stations

Station Location Temp. Windchill Dew Point Humidity Wind Precip. Elev Updated Type
                   

Watches & Warnings

Dense Fog Advisory
Issued: 4:07 AM MST Feb. 13, 2016 – National Weather Service

... Dense fog advisory in effect until 9 am MST this morning...

The National Weather Service in Salt Lake City has issued a dense
fog advisory... which is in effect until 9 am MST this morning.

* Affected area... the southern Wasatch front... mainly near and
south of Utah Lake.

* Visibilities... under one quarter of mile with local areas of
near zero visibility.

* Timing... the dense fog will start to thin out after about 900
am.

* Impacts... reduced visibility will impact travel through Utah
County... mainly between Lehi and Santaquin including I-15.


Precautionary/preparedness actions...

A dense fog advisory means visibilities will frequently be
reduced to less than one quarter mile. If driving... slow down...
use your low beam headlights... and leave plenty of distance ahead
of you.



For more information from NOAA/National Weather Service visit...
http://weather.Gov/saltlakecity (all lower case)